sensor_id;sensor_type;location;lat;lon;timestamp;noise_LAeq;noise_LA_min;noise_LA_max;noise_LA01;noise_LA95
71030;Laerm;63723;51.436;5.976;2023-04-12T00:00:07;50.84;48.93;52.82;;
71030;Laerm;63723;51.436;5.976;2023-04-12T00:00:20;50.94;49.05;55.88;;
71030;Laerm;63723;51.436;5.976;2023-04-12T00:00:31;50.97;49.34;56.07;;
71030;Laerm;63723;51.436;5.976;2023-04-12T00:00:42;50.90;49.02;53.17;;
71030;Laerm;63723;51.436;5.976;2023-04-12T00:00:53;50.84;48.87;52.85;;
71030;Laerm;63723;51.436;5.976;2023-04-12T00:01:04;50.89;49.05;53.33;;
71030;Laerm;63723;51.436;5.976;2023-04-12T00:01:15;50.85;49.14;52.44;;
71030;Laerm;63723;51.436;5.976;2023-04-12T00:01:25;50.76;48.93;52.49;;
71030;Laerm;63723;51.436;5.976;2023-04-12T00:01:36;50.79;49.08;54.93;;
71030;Laerm;63723;51.436;5.976;2023-04-12T00:01:46;50.72;49.07;52.36;;
71030;Laerm;63723;51.436;5.976;2023-04-12T00:01:57;50.76;49.35;52.49;;
71030;Laerm;63723;51.436;5.976;2023-04-12T00:02:07;50.82;49.19;55.60;;
71030;Laerm;63723;51.436;5.976;2023-04-12T00:02:18;50.87;49.03;52.70;;
71030;Laerm;63723;51.436;5.976;2023-04-12T00:02:28;50.81;48.98;55.68;;
71030;Laerm;63723;51.436;5.976;2023-04-12T00:02:38;50.85;48.96;52.75;;
71030;Laerm;63723;51.436;5.976;2023-04-12T00:02:48;50.75;49.06;52.46;;
71030;Laerm;63723;51.436;5.976;2023-04-12T00:03:04;50.66;48.85;53.93;;
71030;Laerm;63723;51.436;5.976;2023-04-12T00:03:17;50.80;48.97;52.75;;
71030;Laerm;63723;51.436;5.976;2023-04-12T00:03:29;50.64;49.03;55.81;;
71030;Laerm;63723;51.436;5.976;2023-04-12T00:03:43;50.76;48.73;57.94;;
71030;Laerm;63723;51.436;5.976;2023-04-12T00:03:59;50.90;49.09;55.21;;
71030;Laerm;63723;51.436;5.976;2023-04-12T00:04:12;50.88;48.67;55.63;;
71030;Laerm;63723;51.436;5.976;2023-04-12T00:04:25;50.81;48.69;53.01;;
71030;Laerm;63723;51.436;5.976;2023-04-12T00:04:37;51.07;49.21;53.51;;
71030;Laerm;63723;51.436;5.976;2023-04-12T00:04:48;50.89;48.58;55.58;;
71030;Laerm;63723;51.436;5.976;2023-04-12T00:05:04;50.77;48.80;53.49;;
71030;Laerm;63723;51.436;5.976;2023-04-12T00:05:14;50.71;49.03;52.75;;
71030;Laerm;63723;51.436;5.976;2023-04-12T00:05:25;50.61;48.92;52.48;;
71030;Laerm;63723;51.436;5.976;2023-04-12T00:05:39;50.73;48.71;54.05;;
71030;Laerm;63723;51.436;5.976;2023-04-12T00:05:56;50.88;49.02;52.71;;
71030;Laerm;63723;51.436;5.976;2023-04-12T00:06:06;51.23;49.12;58.69;;
71030;Laerm;63723;51.436;5.976;2023-04-12T00:06:16;51.26;49.61;53.38;;
71030;Laerm;63723;51.436;5.976;2023-04-12T00:06:32;51.03;48.62;52.79;;
71030;Laerm;63723;51.436;5.976;2023-04-12T00:06:44;50.79;48.79;56.08;;
71030;Laerm;63723;51.436;5.976;2023-04-12T00:06:57;50.61;48.97;52.42;;
71030;Laerm;63723;51.436;5.976;2023-04-12T00:07:10;51.16;48.95;59.39;;
71030;Laerm;63723;51.436;5.976;2023-04-12T00:07:21;51.39;49.73;53.39;;
71030;Laerm;63723;51.436;5.976;2023-04-12T00:07:32;51.11;49.14;53.73;;
71030;Laerm;63723;51.436;5.976;2023-04-12T00:07:42;50.78;48.71;52.88;;
71030;Laerm;63723;51.436;5.976;2023-04-12T00:07:56;50.83;48.98;52.68;;
71030;Laerm;63723;51.436;5.976;2023-04-12T00:08:07;50.77;48.99;52.36;;
71030;Laerm;63723;51.436;5.976;2023-04-12T00:08:20;50.77;49.09;52.73;;
71030;Laerm;63723;51.436;5.976;2023-04-12T00:08:35;50.76;48.91;52.82;;
71030;Laerm;63723;51.436;5.976;2023-04-12T00:08:45;50.85;48.50;56.49;;
71030;Laerm;63723;51.436;5.976;2023-04-12T00:09:00;50.75;48.71;52.94;;
71030;Laerm;63723;51.436;5.976;2023-04-12T00:09:11;50.87;49.14;53.10;;
71030;Laerm;63723;51.436;5.976;2023-04-12T00:09:21;50.70;49.12;53.07;;
71030;Laerm;63723;51.436;5.976;2023-04-12T00:09:32;50.75;48.76;52.72;;
71030;Laerm;63723;51.436;5.976;2023-04-12T00:09:45;50.75;49.09;52.63;;
71030;Laerm;63723;51.436;5.976;2023-04-12T00:09:55;50.64;48.97;52.36;;
71030;Laerm;63723;51.436;5.976;2023-04-12T00:10:07;50.75;49.08;52.80;;
71030;Laerm;63723;51.436;5.976;2023-04-12T00:10:18;50.64;48.98;52.50;;
71030;Laerm;63723;51.436;5.976;2023-04-12T00:10:28;50.66;48.96;55.11;;
71030;Laerm;63723;51.436;5.976;2023-04-12T00:10:39;50.71;48.98;52.89;;
71030;Laerm;63723;51.436;5.976;2023-04-12T00:10:50;50.62;48.57;52.21;;
71030;Laerm;63723;51.436;5.976;2023-04-12T00:11:01;50.85;49.06;55.86;;
71030;Laerm;63723;51.436;5.976;2023-04-12T00:11:12;50.83;48.75;53.15;;
71030;Laerm;63723;51.436;5.976;2023-04-12T00:11:22;50.75;49.27;52.89;;
71030;Laerm;63723;51.436;5.976;2023-04-12T00:11:33;50.80;48.94;54.97;;
71030;Laerm;63723;51.436;5.976;2023-04-12T00:11:44;50.75;48.76;57.07;;
71030;Laerm;63723;51.436;5.976;2023-04-12T00:11:54;50.74;49.18;53.61;;
71030;Laerm;63723;51.436;5.976;2023-04-12T00:12:06;50.71;48.94;53.41;;
71030;Laerm;63723;51.436;5.976;2023-04-12T00:12:17;50.78;48.95;52.82;;
71030;Laerm;63723;51.436;5.976;2023-04-12T00:12:28;50.78;48.87;52.54;;
71030;Laerm;63723;51.436;5.976;2023-04-12T00:12:40;50.73;48.81;53.17;;
71030;Laerm;63723;51.436;5.976;2023-04-12T00:12:50;50.75;48.81;52.97;;
71030;Laerm;63723;51.436;5.976;2023-04-12T00:13:00;50.65;48.83;53.42;;
71030;Laerm;63723;51.436;5.976;2023-04-12T00:13:11;50.63;48.91;52.63;;
71030;Laerm;63723;51.436;5.976;2023-04-12T00:13:21;50.73;49.11;52.70;;
71030;Laerm;63723;51.436;5.976;2023-04-12T00:13:31;50.69;49.00;56.41;;
71030;Laerm;63723;51.436;5.976;2023-04-12T00:13:42;50.69;48.71;56.39;;
71030;Laerm;63723;51.436;5.976;2023-04-12T00:13:52;50.70;48.88;54.86;;
71030;Laerm;63723;51.436;5.976;2023-04-12T00:14:03;50.67;49.21;52.54;;
71030;Laerm;63723;51.436;5.976;2023-04-12T00:14:13;50.64;49.04;52.48;;
71030;Laerm;63723;51.436;5.976;2023-04-12T00:14:24;50.66;49.23;52.39;;
71030;Laerm;63723;51.436;5.976;2023-04-12T00:14:34;50.70;49.23;55.49;;
71030;Laerm;63723;51.436;5.976;2023-04-12T00:14:45;50.72;48.87;52.80;;
71030;Laerm;63723;51.436;5.976;2023-04-12T00:14:55;50.64;49.04;52.41;;
71030;Laerm;63723;51.436;5.976;2023-04-12T00:15:06;50.74;49.09;52.36;;
71030;Laerm;63723;51.436;5.976;2023-04-12T00:15:16;50.80;49.18;56.71;;
71030;Laerm;63723;51.436;5.976;2023-04-12T00:15:27;50.65;48.97;52.64;;
71030;Laerm;63723;51.436;5.976;2023-04-12T00:15:37;50.71;48.66;52.74;;
71030;Laerm;63723;51.436;5.976;2023-04-12T00:15:47;50.86;49.05;55.72;;
71030;Laerm;63723;51.436;5.976;2023-04-12T00:15:58;50.55;48.88;53.02;;
71030;Laerm;63723;51.436;5.976;2023-04-12T00:16:08;50.61;48.70;52.93;;
71030;Laerm;63723;51.436;5.976;2023-04-12T00:16:19;50.61;48.94;52.65;;
71030;Laerm;63723;51.436;5.976;2023-04-12T00:16:29;50.77;48.99;55.51;;
71030;Laerm;63723;51.436;5.976;2023-04-12T00:16:39;51.07;48.87;56.85;;
71030;Laerm;63723;51.436;5.976;2023-04-12T00:16:51;50.64;48.93;52.63;;
71030;Laerm;63723;51.436;5.976;2023-04-12T00:17:01;50.66;48.53;52.31;;
71030;Laerm;63723;51.436;5.976;2023-04-12T00:17:11;50.69;49.24;52.25;;
71030;Laerm;63723;51.436;5.976;2023-04-12T00:17:22;50.64;49.11;52.65;;
71030;Laerm;63723;51.436;5.976;2023-04-12T00:17:32;50.62;48.92;52.30;;
71030;Laerm;63723;51.436;5.976;2023-04-12T00:17:43;50.67;48.89;55.13;;
71030;Laerm;63723;51.436;5.976;2023-04-12T00:17:54;50.65;48.77;56.49;;
71030;Laerm;63723;51.436;5.976;2023-04-12T00:18:05;50.77;48.75;57.47;;
71030;Laerm;63723;51.436;5.976;2023-04-12T00:18:15;50.66;48.79;56.45;;
71030;Laerm;63723;51.436;5.976;2023-04-12T00:18:25;50.51;48.52;52.25;;
71030;Laerm;63723;51.436;5.976;2023-04-12T00:18:36;50.51;49.00;52.56;;
71030;Laerm;63723;51.436;5.976;2023-04-12T00:18:46;50.62;49.12;52.94;;
71030;Laerm;63723;51.436;5.976;2023-04-12T00:18:57;50.56;49.21;52.20;;
71030;Laerm;63723;51.436;5.976;2023-04-12T00:19:08;50.51;48.86;52.09;;
71030;Laerm;63723;51.436;5.976;2023-04-12T00:19:18;50.58;48.91;54.35;;
71030;Laerm;63723;51.436;5.976;2023-04-12T00:19:29;50.60;48.77;52.50;;
71030;Laerm;63723;51.436;5.976;2023-04-12T00:19:40;50.54;48.70;52.51;;
71030;Laerm;63723;51.436;5.976;2023-04-12T00:19:50;50.68;49.16;56.74;;
71030;Laerm;63723;51.436;5.976;2023-04-12T00:20:01;50.55;48.76;52.19;;
71030;Laerm;63723;51.436;5.976;2023-04-12T00:20:14;50.72;48.61;57.06;;
71030;Laerm;63723;51.436;5.976;2023-04-12T00:20:25;50.53;48.70;52.13;;
71030;Laerm;63723;51.436;5.976;2023-04-12T00:20:36;50.68;49.07;55.45;;
71030;Laerm;63723;51.436;5.976;2023-04-12T00:20:47;50.66;49.11;52.61;;
71030;Laerm;63723;51.436;5.976;2023-04-12T00:20:58;50.61;49.08;52.51;;
71030;Laerm;63723;51.436;5.976;2023-04-12T00:21:08;50.91;48.90;57.36;;
71030;Laerm;63723;51.436;5.976;2023-04-12T00:21:19;50.62;48.88;54.14;;
71030;Laerm;63723;51.436;5.976;2023-04-12T00:21:32;50.51;48.86;52.45;;
71030;Laerm;63723;51.436;5.976;2023-04-12T00:21:43;50.48;49.03;52.29;;
71030;Laerm;63723;51.436;5.976;2023-04-12T00:21:53;50.56;48.84;52.87;;
71030;Laerm;63723;51.436;5.976;2023-04-12T00:22:04;50.73;49.07;57.35;;
71030;Laerm;63723;51.436;5.976;2023-04-12T00:22:15;50.66;49.21;52.41;;
71030;Laerm;63723;51.436;5.976;2023-04-12T00:22:25;50.63;49.19;52.52;;
71030;Laerm;63723;51.436;5.976;2023-04-12T00:22:40;50.60;49.12;52.39;;
71030;Laerm;63723;51.436;5.976;2023-04-12T00:22:50;50.88;48.89;55.67;;
71030;Laerm;63723;51.436;5.976;2023-04-12T00:23:02;50.70;48.77;55.02;;
71030;Laerm;63723;51.436;5.976;2023-04-12T00:23:13;50.63;48.99;52.54;;
71030;Laerm;63723;51.436;5.976;2023-04-12T00:23:24;50.49;48.67;52.28;;
71030;Laerm;63723;51.436;5.976;2023-04-12T00:23:34;50.55;48.99;52.35;;
71030;Laerm;63723;51.436;5.976;2023-04-12T00:23:46;50.47;48.80;52.42;;
71030;Laerm;63723;51.436;5.976;2023-04-12T00:23:58;50.66;49.21;56.34;;
71030;Laerm;63723;51.436;5.976;2023-04-12T00:24:08;50.67;49.09;52.66;;
71030;Laerm;63723;51.436;5.976;2023-04-12T00:24:19;50.76;49.16;52.74;;
71030;Laerm;63723;51.436;5.976;2023-04-12T00:24:30;51.08;49.10;56.42;;
71030;Laerm;63723;51.436;5.976;2023-04-12T00:24:40;50.97;49.09;53.22;;
71030;Laerm;63723;51.436;5.976;2023-04-12T00:24:50;51.28;49.42;58.25;;
71030;Laerm;63723;51.436;5.976;2023-04-12T00:25:01;50.86;48.98;55.79;;
71030;Laerm;63723;51.436;5.976;2023-04-12T00:25:11;50.89;49.04;57.97;;
71030;Laerm;63723;51.436;5.976;2023-04-12T00:25:23;50.92;49.27;53.34;;
71030;Laerm;63723;51.436;5.976;2023-04-12T00:25:35;50.83;48.97;52.76;;
71030;Laerm;63723;51.436;5.976;2023-04-12T00:25:48;50.87;48.96;57.35;;
71030;Laerm;63723;51.436;5.976;2023-04-12T00:25:58;50.89;49.32;53.36;;
71030;Laerm;63723;51.436;5.976;2023-04-12T00:26:08;51.11;49.06;53.61;;
71030;Laerm;63723;51.436;5.976;2023-04-12T00:26:19;50.85;49.32;53.46;;
71030;Laerm;63723;51.436;5.976;2023-04-12T00:26:37;51.02;48.99;57.61;;
71030;Laerm;63723;51.436;5.976;2023-04-12T00:26:47;50.81;49.29;56.29;;
71030;Laerm;63723;51.436;5.976;2023-04-12T00:26:57;51.28;49.03;53.61;;
71030;Laerm;63723;51.436;5.976;2023-04-12T00:27:11;51.14;49.26;53.40;;
71030;Laerm;63723;51.436;5.976;2023-04-12T00:27:21;50.88;49.24;52.66;;
71030;Laerm;63723;51.436;5.976;2023-04-12T00:27:32;51.06;49.18;58.00;;
71030;Laerm;63723;51.436;5.976;2023-04-12T00:27:42;50.94;49.23;56.82;;
71030;Laerm;63723;51.436;5.976;2023-04-12T00:27:52;50.91;49.38;53.20;;
71030;Laerm;63723;51.436;5.976;2023-04-12T00:28:03;50.66;49.07;52.49;;
71030;Laerm;63723;51.436;5.976;2023-04-12T00:28:13;50.70;48.97;52.77;;
71030;Laerm;63723;51.436;5.976;2023-04-12T00:28:24;50.72;48.98;56.40;;
71030;Laerm;63723;51.436;5.976;2023-04-12T00:28:35;50.50;48.72;52.42;;
71030;Laerm;63723;51.436;5.976;2023-04-12T00:28:45;50.50;48.53;52.51;;
71030;Laerm;63723;51.436;5.976;2023-04-12T00:28:56;50.62;48.66;55.38;;
71030;Laerm;63723;51.436;5.976;2023-04-12T00:29:06;50.71;49.16;53.14;;
71030;Laerm;63723;51.436;5.976;2023-04-12T00:29:17;50.68;49.10;52.65;;
71030;Laerm;63723;51.436;5.976;2023-04-12T00:29:27;50.56;49.25;53.16;;
71030;Laerm;63723;51.436;5.976;2023-04-12T00:29:38;50.68;48.87;56.89;;
71030;Laerm;63723;51.436;5.976;2023-04-12T00:29:48;50.67;49.15;56.79;;
71030;Laerm;63723;51.436;5.976;2023-04-12T00:29:59;50.50;49.03;52.28;;
71030;Laerm;63723;51.436;5.976;2023-04-12T00:30:09;50.58;48.95;52.62;;
71030;Laerm;63723;51.436;5.976;2023-04-12T00:30:20;50.59;48.56;52.65;;
71030;Laerm;63723;51.436;5.976;2023-04-12T00:30:30;50.70;48.91;58.13;;
71030;Laerm;63723;51.436;5.976;2023-04-12T00:30:41;50.53;48.78;52.81;;
71030;Laerm;63723;51.436;5.976;2023-04-12T00:30:51;50.93;48.70;55.10;;
71030;Laerm;63723;51.436;5.976;2023-04-12T00:31:02;50.39;48.66;52.21;;
71030;Laerm;63723;51.436;5.976;2023-04-12T00:31:12;50.40;49.06;52.40;;
71030;Laerm;63723;51.436;5.976;2023-04-12T00:31:23;50.50;48.88;56.03;;
71030;Laerm;63723;51.436;5.976;2023-04-12T00:31:33;50.45;48.51;55.55;;
71030;Laerm;63723;51.436;5.976;2023-04-12T00:31:43;50.48;48.86;52.52;;
71030;Laerm;63723;51.436;5.976;2023-04-12T00:31:53;50.47;48.79;52.25;;
71030;Laerm;63723;51.436;5.976;2023-04-12T00:32:04;50.65;48.68;55.54;;
71030;Laerm;63723;51.436;5.976;2023-04-12T00:32:14;50.43;48.93;52.33;;
71030;Laerm;63723;51.436;5.976;2023-04-12T00:32:25;50.44;48.97;56.90;;
71030;Laerm;63723;51.436;5.976;2023-04-12T00:32:36;50.79;49.09;57.49;;
71030;Laerm;63723;51.436;5.976;2023-04-12T00:32:46;50.60;49.17;53.31;;
71030;Laerm;63723;51.436;5.976;2023-04-12T00:32:57;50.77;48.75;55.91;;
71030;Laerm;63723;51.436;5.976;2023-04-12T00:33:07;50.61;48.94;53.64;;
71030;Laerm;63723;51.436;5.976;2023-04-12T00:33:17;50.56;48.80;55.02;;
71030;Laerm;63723;51.436;5.976;2023-04-12T00:33:27;50.47;48.72;52.76;;
71030;Laerm;63723;51.436;5.976;2023-04-12T00:33:38;50.60;48.76;52.61;;
71030;Laerm;63723;51.436;5.976;2023-04-12T00:33:48;50.75;49.00;55.99;;
71030;Laerm;63723;51.436;5.976;2023-04-12T00:33:58;50.50;49.00;52.80;;
71030;Laerm;63723;51.436;5.976;2023-04-12T00:34:09;50.51;48.95;53.37;;
71030;Laerm;63723;51.436;5.976;2023-04-12T00:34:19;50.58;48.60;52.37;;
71030;Laerm;63723;51.436;5.976;2023-04-12T00:34:29;50.55;48.67;55.86;;
71030;Laerm;63723;51.436;5.976;2023-04-12T00:34:40;50.45;48.67;52.58;;
71030;Laerm;63723;51.436;5.976;2023-04-12T00:34:50;50.43;48.88;52.72;;
71030;Laerm;63723;51.436;5.976;2023-04-12T00:35:00;50.72;48.75;56.76;;
71030;Laerm;63723;51.436;5.976;2023-04-12T00:35:11;50.47;48.82;54.05;;
71030;Laerm;63723;51.436;5.976;2023-04-12T00:35:21;50.48;48.66;52.23;;
71030;Laerm;63723;51.436;5.976;2023-04-12T00:35:31;50.54;48.59;54.66;;
71030;Laerm;63723;51.436;5.976;2023-04-12T00:35:41;50.40;48.76;52.68;;
71030;Laerm;63723;51.436;5.976;2023-04-12T00:35:52;50.49;48.96;52.62;;
71030;Laerm;63723;51.436;5.976;2023-04-12T00:36:02;50.38;48.89;52.47;;
71030;Laerm;63723;51.436;5.976;2023-04-12T00:36:12;50.45;48.80;52.37;;
71030;Laerm;63723;51.436;5.976;2023-04-12T00:36:23;50.55;48.72;55.10;;
71030;Laerm;63723;51.436;5.976;2023-04-12T00:36:33;50.45;48.87;52.46;;
71030;Laerm;63723;51.436;5.976;2023-04-12T00:36:43;50.37;48.30;52.27;;
71030;Laerm;63723;51.436;5.976;2023-04-12T00:36:54;50.38;48.77;52.81;;
71030;Laerm;63723;51.436;5.976;2023-04-12T00:37:04;50.59;48.66;55.20;;
71030;Laerm;63723;51.436;5.976;2023-04-12T00:37:14;50.52;48.57;52.53;;
71030;Laerm;63723;51.436;5.976;2023-04-12T00:37:25;50.48;48.90;53.08;;
71030;Laerm;63723;51.436;5.976;2023-04-12T00:37:35;50.52;48.82;53.07;;
71030;Laerm;63723;51.436;5.976;2023-04-12T00:37:47;50.47;48.97;52.89;;
71030;Laerm;63723;51.436;5.976;2023-04-12T00:37:57;50.44;49.11;52.46;;
71030;Laerm;63723;51.436;5.976;2023-04-12T00:38:09;50.62;48.91;56.34;;
71030;Laerm;63723;51.436;5.976;2023-04-12T00:38:19;50.49;48.67;52.51;;
71030;Laerm;63723;51.436;5.976;2023-04-12T00:38:30;50.47;48.99;52.40;;
71030;Laerm;63723;51.436;5.976;2023-04-12T00:38:40;50.53;48.76;52.26;;
71030;Laerm;63723;51.436;5.976;2023-04-12T00:38:51;50.49;48.98;57.81;;
71030;Laerm;63723;51.436;5.976;2023-04-12T00:39:01;50.50;48.73;55.92;;
71030;Laerm;63723;51.436;5.976;2023-04-12T00:39:12;50.50;48.70;55.70;;
71030;Laerm;63723;51.436;5.976;2023-04-12T00:39:22;50.43;48.79;51.93;;
71030;Laerm;63723;51.436;5.976;2023-04-12T00:39:32;50.52;49.03;55.79;;
71030;Laerm;63723;51.436;5.976;2023-04-12T00:39:43;50.45;48.83;52.48;;
71030;Laerm;63723;51.436;5.976;2023-04-12T00:39:53;50.41;48.88;52.73;;
71030;Laerm;63723;51.436;5.976;2023-04-12T00:40:03;50.46;48.41;52.64;;
71030;Laerm;63723;51.436;5.976;2023-04-12T00:40:16;50.36;48.74;52.26;;
71030;Laerm;63723;51.436;5.976;2023-04-12T00:40:26;50.36;48.74;52.44;;
71030;Laerm;63723;51.436;5.976;2023-04-12T00:40:42;50.54;48.58;52.55;;
71030;Laerm;63723;51.436;5.976;2023-04-12T00:40:52;50.48;48.80;56.00;;
71030;Laerm;63723;51.436;5.976;2023-04-12T00:41:03;50.42;48.76;52.55;;
71030;Laerm;63723;51.436;5.976;2023-04-12T00:41:13;50.65;48.78;52.58;;
71030;Laerm;63723;51.436;5.976;2023-04-12T00:41:25;50.70;48.70;55.15;;
71030;Laerm;63723;51.436;5.976;2023-04-12T00:41:36;50.72;48.67;58.14;;
71030;Laerm;63723;51.436;5.976;2023-04-12T00:41:46;50.78;49.01;56.75;;
71030;Laerm;63723;51.436;5.976;2023-04-12T00:41:56;50.66;48.49;52.72;;
71030;Laerm;63723;51.436;5.976;2023-04-12T00:42:07;50.63;48.73;52.41;;
71030;Laerm;63723;51.436;5.976;2023-04-12T00:42:17;51.40;49.18;54.32;;
71030;Laerm;63723;51.436;5.976;2023-04-12T00:42:29;51.83;49.49;55.05;;
71030;Laerm;63723;51.436;5.976;2023-04-12T00:42:39;51.85;49.08;54.52;;
71030;Laerm;63723;51.436;5.976;2023-04-12T00:42:50;51.83;49.16;56.12;;
71030;Laerm;63723;51.436;5.976;2023-04-12T00:43:00;50.71;48.60;57.04;;
71030;Laerm;63723;51.436;5.976;2023-04-12T00:43:10;50.46;48.85;52.28;;
71030;Laerm;63723;51.436;5.976;2023-04-12T00:43:27;50.50;48.51;52.82;;
71030;Laerm;63723;51.436;5.976;2023-04-12T00:43:41;50.48;48.78;56.71;;
71030;Laerm;63723;51.436;5.976;2023-04-12T00:43:52;50.40;48.45;52.67;;
71030;Laerm;63723;51.436;5.976;2023-04-12T00:44:02;50.53;48.85;54.27;;
71030;Laerm;63723;51.436;5.976;2023-04-12T00:44:13;50.52;48.76;52.41;;
71030;Laerm;63723;51.436;5.976;2023-04-12T00:44:26;50.49;48.73;52.50;;
71030;Laerm;63723;51.436;5.976;2023-04-12T00:44:37;50.54;48.14;52.35;;
71030;Laerm;63723;51.436;5.976;2023-04-12T00:44:47;50.64;49.01;52.59;;
71030;Laerm;63723;51.436;5.976;2023-04-12T00:44:58;50.50;48.93;52.35;;
71030;Laerm;63723;51.436;5.976;2023-04-12T00:45:08;50.45;48.84;56.74;;
71030;Laerm;63723;51.436;5.976;2023-04-12T00:45:19;50.45;48.82;52.77;;
71030;Laerm;63723;51.436;5.976;2023-04-12T00:45:30;50.70;49.16;57.08;;
71030;Laerm;63723;51.436;5.976;2023-04-12T00:45:40;50.57;48.85;56.02;;
71030;Laerm;63723;51.436;5.976;2023-04-12T00:45:51;50.51;48.82;52.43;;
71030;Laerm;63723;51.436;5.976;2023-04-12T00:46:03;50.53;48.91;53.32;;
71030;Laerm;63723;51.436;5.976;2023-04-12T00:46:13;50.51;48.77;52.55;;
71030;Laerm;63723;51.436;5.976;2023-04-12T00:46:23;50.60;49.16;52.93;;
71030;Laerm;63723;51.436;5.976;2023-04-12T00:46:34;50.49;48.84;53.76;;
71030;Laerm;63723;51.436;5.976;2023-04-12T00:46:45;50.56;48.76;55.58;;
71030;Laerm;63723;51.436;5.976;2023-04-12T00:46:56;50.39;49.00;52.96;;
71030;Laerm;63723;51.436;5.976;2023-04-12T00:47:07;50.46;48.79;52.29;;
71030;Laerm;63723;51.436;5.976;2023-04-12T00:47:17;50.46;48.55;52.50;;
71030;Laerm;63723;51.436;5.976;2023-04-12T00:47:31;50.50;48.86;52.25;;
71030;Laerm;63723;51.436;5.976;2023-04-12T00:47:43;50.45;48.59;52.61;;
71030;Laerm;63723;51.436;5.976;2023-04-12T00:47:54;50.41;48.69;52.10;;
71030;Laerm;63723;51.436;5.976;2023-04-12T00:48:05;50.41;48.66;52.53;;
71030;Laerm;63723;51.436;5.976;2023-04-12T00:48:15;50.52;48.76;52.86;;
71030;Laerm;63723;51.436;5.976;2023-04-12T00:48:26;50.98;48.70;55.34;;
71030;Laerm;63723;51.436;5.976;2023-04-12T00:48:38;51.69;49.17;55.24;;
71030;Laerm;63723;51.436;5.976;2023-04-12T00:48:49;50.65;48.90;56.79;;
71030;Laerm;63723;51.436;5.976;2023-04-12T00:48:59;50.55;48.65;53.06;;
71030;Laerm;63723;51.436;5.976;2023-04-12T00:49:11;50.48;48.58;57.69;;
71030;Laerm;63723;51.436;5.976;2023-04-12T00:49:22;50.57;48.69;56.85;;
71030;Laerm;63723;51.436;5.976;2023-04-12T00:49:32;50.68;48.47;53.87;;
71030;Laerm;63723;51.436;5.976;2023-04-12T00:49:43;50.54;48.84;53.12;;
71030;Laerm;63723;51.436;5.976;2023-04-12T00:49:53;50.69;49.00;57.24;;
71030;Laerm;63723;51.436;5.976;2023-04-12T00:50:04;50.50;49.10;52.30;;
71030;Laerm;63723;51.436;5.976;2023-04-12T00:50:18;50.48;49.02;52.50;;
71030;Laerm;63723;51.436;5.976;2023-04-12T00:50:30;50.64;48.91;52.37;;
71030;Laerm;63723;51.436;5.976;2023-04-12T00:50:40;50.57;48.86;53.03;;
71030;Laerm;63723;51.436;5.976;2023-04-12T00:50:53;50.60;48.91;54.06;;
71030;Laerm;63723;51.436;5.976;2023-04-12T00:51:06;50.61;48.94;55.79;;
71030;Laerm;63723;51.436;5.976;2023-04-12T00:51:17;50.61;49.18;55.05;;
71030;Laerm;63723;51.436;5.976;2023-04-12T00:51:31;50.45;49.08;52.51;;
71030;Laerm;63723;51.436;5.976;2023-04-12T00:51:42;50.68;48.93;56.07;;
71030;Laerm;63723;51.436;5.976;2023-04-12T00:51:53;50.52;49.01;52.32;;
71030;Laerm;63723;51.436;5.976;2023-04-12T00:52:05;51.44;49.20;57.73;;
71030;Laerm;63723;51.436;5.976;2023-04-12T00:52:16;51.73;49.33;58.08;;
71030;Laerm;63723;51.436;5.976;2023-04-12T00:52:27;50.71;48.93;53.14;;
71030;Laerm;63723;51.436;5.976;2023-04-12T00:52:43;50.61;48.87;52.45;;
71030;Laerm;63723;51.436;5.976;2023-04-12T00:52:53;50.64;49.03;52.70;;
71030;Laerm;63723;51.436;5.976;2023-04-12T00:53:04;50.55;48.71;55.08;;
71030;Laerm;63723;51.436;5.976;2023-04-12T00:53:14;50.53;49.10;52.50;;
71030;Laerm;63723;51.436;5.976;2023-04-12T00:53:26;50.55;48.99;52.96;;
71030;Laerm;63723;51.436;5.976;2023-04-12T00:53:37;50.63;48.97;52.41;;
71030;Laerm;63723;51.436;5.976;2023-04-12T00:53:48;50.59;48.87;52.55;;
71030;Laerm;63723;51.436;5.976;2023-04-12T00:53:59;50.66;49.01;56.66;;
71030;Laerm;63723;51.436;5.976;2023-04-12T00:54:11;50.66;49.02;52.70;;
71030;Laerm;63723;51.436;5.976;2023-04-12T00:54:23;50.74;48.89;52.59;;
71030;Laerm;63723;51.436;5.976;2023-04-12T00:54:35;51.86;49.06;55.76;;
71030;Laerm;63723;51.436;5.976;2023-04-12T00:54:45;50.69;49.20;52.33;;
71030;Laerm;63723;51.436;5.976;2023-04-12T00:54:55;50.69;49.00;54.13;;
71030;Laerm;63723;51.436;5.976;2023-04-12T00:55:06;50.72;49.04;56.61;;
71030;Laerm;63723;51.436;5.976;2023-04-12T00:55:18;50.53;48.78;52.28;;
71030;Laerm;63723;51.436;5.976;2023-04-12T00:55:28;50.57;48.73;52.53;;
71030;Laerm;63723;51.436;5.976;2023-04-12T00:55:43;50.50;48.78;53.43;;
71030;Laerm;63723;51.436;5.976;2023-04-12T00:55:53;50.59;48.98;52.67;;
71030;Laerm;63723;51.436;5.976;2023-04-12T00:56:07;50.58;48.97;53.14;;
71030;Laerm;63723;51.436;5.976;2023-04-12T00:56:20;50.53;48.77;52.39;;
71030;Laerm;63723;51.436;5.976;2023-04-12T00:56:32;50.55;49.08;52.47;;
71030;Laerm;63723;51.436;5.976;2023-04-12T00:56:43;50.50;49.11;52.56;;
71030;Laerm;63723;51.436;5.976;2023-04-12T00:56:55;50.68;48.76;57.56;;
71030;Laerm;63723;51.436;5.976;2023-04-12T00:57:08;50.77;48.66;57.01;;
71030;Laerm;63723;51.436;5.976;2023-04-12T00:57:19;50.55;49.06;52.33;;
71030;Laerm;63723;51.436;5.976;2023-04-12T00:57:31;50.66;48.82;55.84;;
71030;Laerm;63723;51.436;5.976;2023-04-12T00:57:43;50.64;48.92;56.00;;
71030;Laerm;63723;51.436;5.976;2023-04-12T00:57:53;50.55;48.97;55.91;;
71030;Laerm;63723;51.436;5.976;2023-04-12T00:58:04;50.63;49.25;57.01;;
71030;Laerm;63723;51.436;5.976;2023-04-12T00:58:15;50.72;48.97;57.55;;
71030;Laerm;63723;51.436;5.976;2023-04-12T00:58:25;50.51;49.15;52.45;;
71030;Laerm;63723;51.436;5.976;2023-04-12T00:58:36;50.47;48.57;52.48;;
71030;Laerm;63723;51.436;5.976;2023-04-12T00:58:46;50.45;48.77;52.27;;
71030;Laerm;63723;51.436;5.976;2023-04-12T00:58:56;50.44;48.55;52.41;;
71030;Laerm;63723;51.436;5.976;2023-04-12T00:59:07;50.53;48.84;52.46;;
71030;Laerm;63723;51.436;5.976;2023-04-12T00:59:17;50.50;49.01;52.41;;
71030;Laerm;63723;51.436;5.976;2023-04-12T00:59:28;50.59;48.69;52.37;;
71030;Laerm;63723;51.436;5.976;2023-04-12T00:59:38;50.47;48.92;52.48;;
71030;Laerm;63723;51.436;5.976;2023-04-12T00:59:48;50.56;48.91;52.79;;
71030;Laerm;63723;51.436;5.976;2023-04-12T01:00:00;50.55;48.89;52.44;;
71030;Laerm;63723;51.436;5.976;2023-04-12T01:00:10;50.66;48.99;55.31;;
71030;Laerm;63723;51.436;5.976;2023-04-12T01:00:24;50.61;48.83;52.52;;
71030;Laerm;63723;51.436;5.976;2023-04-12T01:00:34;50.68;49.01;53.08;;
71030;Laerm;63723;51.436;5.976;2023-04-12T01:00:44;50.65;48.92;54.50;;
71030;Laerm;63723;51.436;5.976;2023-04-12T01:00:59;50.43;48.99;52.66;;
71030;Laerm;63723;51.436;5.976;2023-04-12T01:01:09;50.79;48.47;56.00;;
71030;Laerm;63723;51.436;5.976;2023-04-12T01:01:19;50.50;49.11;52.44;;
71030;Laerm;63723;51.436;5.976;2023-04-12T01:01:30;50.61;49.08;52.28;;
71030;Laerm;63723;51.436;5.976;2023-04-12T01:01:41;50.69;48.96;57.11;;
71030;Laerm;63723;51.436;5.976;2023-04-12T01:01:52;50.53;48.86;52.10;;
71030;Laerm;63723;51.436;5.976;2023-04-12T01:02:03;50.69;48.85;58.28;;